Time;durP1;ratioP1;P1;durP2;ratioP2;P2;SDS_P1;SDS_P2;PMS_P1;PMS_P2;Temp;Humidity;BMP_temperature;BMP_pressure;BME280_temperature;BME280_humidity;BME280_pressure;Samples;Min_cycle;Max_cycle;Signal;HPM_P1;HPM_P2
2024/04/01 00:02:20;;;;;;;9.00;6.93;;;;;;;17.43;60.01;99174.84;10391051;28;20034;-63
2024/04/01 00:07:21;;;;;;;10.17;7.37;;;;;;;17.46;60.55;99175.00;10371182;28;20030;-63
2024/04/01 00:12:21;;;;;;;7.75;6.03;;;;;;;17.49;60.30;99186.94;10371104;28;20296;-62
2024/04/01 00:17:21;;;;;;;8.07;5.80;;;;;;;17.53;59.98;99180.63;10371032;28;20425;-63
2024/04/01 00:22:22;;;;;;;7.93;5.77;;;;;;;17.51;60.55;99180.16;10370170;28;20296;-62
2024/04/01 00:27:22;;;;;;;8.80;6.87;;;;;;;17.51;60.37;99165.97;10352842;28;20633;-63
2024/04/01 00:32:22;;;;;;;8.83;6.27;;;;;;;17.50;60.28;99162.50;10379053;28;20288;-62
2024/04/01 00:37:23;;;;;;;8.80;6.00;;;;;;;17.48;59.64;99150.53;10370200;28;20276;-63
2024/04/01 00:42:23;;;;;;;8.40;6.23;;;;;;;17.45;60.49;99154.66;10370340;28;21069;-63
2024/04/01 00:47:24;;;;;;;6.87;5.20;;;;;;;17.44;60.06;99161.13;10369654;28;20022;-64
2024/04/01 00:52:26;;;;;;;8.23;5.97;;;;;;;17.43;59.53;99143.50;10369963;28;20311;-62
2024/04/01 00:57:26;;;;;;;8.63;5.78;;;;;;;17.44;60.65;99138.91;10351783;28;20477;-62
2024/04/01 01:02:29;;;;;;;6.85;5.68;;;;;;;17.45;60.10;99127.09;10369280;28;20077;-62
2024/04/01 01:07:30;;;;;;;7.65;5.35;;;;;;;17.42;60.74;99117.03;10352007;28;20084;-62
2024/04/01 01:12:30;;;;;;;9.20;5.75;;;;;;;17.43;60.26;99118.59;10386848;28;20071;-63
2024/04/01 01:17:31;;;;;;;10.17;5.87;;;;;;;17.45;59.39;99111.78;10450904;28;20031;-63
2024/04/01 01:22:35;;;;;;;9.13;4.95;;;;;;;17.45;59.69;99109.13;10433323;28;20323;-62
2024/04/01 01:27:40;;;;;;;7.97;5.65;;;;;;;17.45;60.08;99117.16;10450497;28;20431;-62
2024/04/01 01:32:45;;;;;;;8.23;5.97;;;;;;;17.45;59.79;99119.03;10449733;28;20032;-62
2024/04/01 01:37:49;;;;;;;8.88;5.47;;;;;;;17.43;60.10;99123.94;10449919;28;20069;-62
2024/04/01 01:42:49;;;;;;;7.43;5.03;;;;;;;17.41;60.35;99126.97;10448445;28;20021;-62
2024/04/01 01:47:50;;;;;;;8.10;5.10;;;;;;;17.43;59.71;99122.06;10449906;28;20610;-62
2024/04/01 01:52:50;;;;;;;5.53;4.80;;;;;;;17.41;59.97;99124.28;10450366;28;20291;-63
2024/04/01 01:57:50;;;;;;;7.07;4.90;;;;;;;17.43;60.16;99130.09;10449902;28;20338;-62
2024/04/01 02:02:52;;;;;;;10.43;5.30;;;;;;;17.40;59.34;99132.63;10450178;28;20279;-62
2024/04/01 02:07:52;;;;;;;5.85;4.22;;;;;;;17.53;65.14;99137.75;10449929;28;20287;-62
2024/04/01 02:12:52;;;;;;;6.57;4.40;;;;;;;17.63;64.09;99144.59;10449320;28;20057;-62
2024/04/01 02:17:53;;;;;;;6.50;4.47;;;;;;;17.64;63.77;99151.53;10449699;28;20658;-63
2024/04/01 02:22:55;;;;;;;5.65;4.10;;;;;;;17.61;63.54;99152.19;10449512;28;20070;-63
2024/04/01 02:27:55;;;;;;;6.22;4.32;;;;;;;17.61;63.09;99148.72;10448919;28;20429;-63
2024/04/01 02:32:55;;;;;;;5.57;4.00;;;;;;;17.57;63.00;99148.59;10449401;28;20047;-63
2024/04/01 02:37:56;;;;;;;5.80;4.00;;;;;;;17.53;62.39;99145.00;10431350;28;20087;-63
2024/04/01 02:42:56;;;;;;;5.77;4.17;;;;;;;17.52;61.18;99146.09;10450143;28;20279;-63
2024/04/01 02:47:56;;;;;;;5.40;3.97;;;;;;;17.51;61.18;99141.84;10456830;28;20313;-63
2024/04/01 02:52:58;;;;;;;6.05;4.53;;;;;;;17.49;61.66;99150.22;10456486;28;20279;-63
2024/04/01 02:57:58;;;;;;;5.60;3.95;;;;;;;17.46;62.22;99145.50;10456517;28;20096;-63
2024/04/01 03:02:58;;;;;;;6.90;4.53;;;;;;;17.46;62.03;99148.19;10456084;28;20539;-63
2024/04/01 03:07:59;;;;;;;5.27;3.20;;;;;;;17.44;62.48;99142.38;10456030;28;20291;-62
2024/04/01 03:13:03;;;;;;;5.80;4.23;;;;;;;17.41;61.67;99135.00;10455566;28;20342;-62
2024/04/01 03:18:04;;;;;;;6.10;4.43;;;;;;;17.43;62.33;99135.44;10455626;28;20282;-63
2024/04/01 03:23:04;;;;;;;5.30;3.70;;;;;;;17.45;61.50;99130.53;10455455;28;20365;-63
2024/04/01 03:28:04;;;;;;;6.43;3.50;;;;;;;17.48;61.55;99135.25;10455482;28;20464;-63
2024/04/01 03:33:06;;;;;;;5.78;4.03;;;;;;;17.47;60.17;99132.91;10436944;28;20031;-63
2024/04/01 03:38:07;;;;;;;5.03;3.55;;;;;;;17.49;60.75;99146.75;10454943;28;20060;-63
2024/04/01 03:43:08;;;;;;;4.43;3.08;;;;;;;17.48;59.88;99132.56;10454690;28;20028;-63
2024/04/01 03:48:09;;;;;;;4.72;3.60;;;;;;;17.49;60.57;99130.66;10454786;28;20033;-63
2024/04/01 03:53:09;;;;;;;5.97;3.73;;;;;;;17.50;60.45;99126.88;10454257;28;20025;-63
2024/04/01 03:58:09;;;;;;;3.30;2.73;;;;;;;17.47;60.42;99127.53;10453416;28;20815;-63
2024/04/01 04:03:10;;;;;;;7.40;3.80;;;;;;;17.45;59.96;99133.22;10453676;28;20268;-63
2024/04/01 04:08:10;;;;;;;4.40;3.30;;;;;;;17.44;60.30;99122.84;10453732;28;20287;-62
2024/04/01 04:13:10;;;;;;;5.30;3.33;;;;;;;17.43;59.79;99127.41;10453335;28;20052;-62
2024/04/01 04:18:11;;;;;;;5.05;3.72;;;;;;;17.42;59.88;99125.06;10453591;28;20336;-62
2024/04/01 04:23:13;;;;;;;5.90;3.47;;;;;;;17.41;60.44;99134.22;10453012;28;20031;-63
2024/04/01 04:28:13;;;;;;;4.05;2.95;;;;;;;17.43;59.96;99129.31;10452979;28;20294;-63
2024/04/01 04:33:13;;;;;;;5.10;3.10;;;;;;;17.42;60.32;99125.06;10452534;28;20364;-63
2024/04/01 04:38:14;;;;;;;5.73;3.50;;;;;;;17.42;59.29;99123.16;10452758;28;20290;-63
2024/04/01 04:43:14;;;;;;;4.63;3.20;;;;;;;17.41;60.84;99132.31;10451899;28;20279;-63
2024/04/01 04:48:15;;;;;;;4.70;3.07;;;;;;;17.42;59.63;99130.41;10452341;28;20029;-63
2024/04/01 04:53:15;;;;;;;6.60;3.60;;;;;;;17.42;60.19;99135.78;10451834;28;20044;-63
2024/04/01 04:58:16;;;;;;;4.40;3.10;;;;;;;17.40;60.18;99128.03;10451999;28;20033;-63
2024/04/01 05:03:16;;;;;;;3.85;3.13;;;;;;;17.41;59.76;99132.31;10451449;28;20886;-63
2024/04/01 05:08:16;;;;;;;4.73;2.90;;;;;;;17.40;58.91;99132.63;10450355;28;20021;-63
2024/04/01 05:13:16;;;;;;;3.80;2.53;;;;;;;17.37;59.87;99134.06;10449570;28;20647;-63
2024/04/01 05:18:17;;;;;;;5.30;3.03;;;;;;;17.38;59.54;99145.56;10430472;28;20279;-63
2024/04/01 05:23:17;;;;;;;4.00;2.87;;;;;;;17.40;59.27;99148.69;10447370;28;20622;-63
2024/04/01 05:28:18;;;;;;;3.78;2.88;;;;;;;17.37;59.25;99142.09;10432775;28;20291;-63
2024/04/01 05:33:19;;;;;;;5.03;2.97;;;;;;;17.37;59.30;99139.41;10450439;28;20017;-62
2024/04/01 05:38:20;;;;;;;3.17;2.42;;;;;;;17.34;59.99;99142.75;10450554;28;20052;-63
2024/04/01 05:43:20;;;;;;;5.10;2.63;;;;;;;17.37;58.85;99141.31;10450150;28;20115;-63
2024/04/01 05:48:20;;;;;;;4.57;2.93;;;;;;;17.39;59.95;99144.44;10450349;28;20307;-63
2024/04/01 05:53:22;;;;;;;4.03;2.50;;;;;;;17.37;59.42;99139.41;10449959;28;20817;-62
2024/04/01 05:58:22;;;;;;;4.47;2.90;;;;;;;17.34;59.20;99150.78;10450294;28;20350;-62
2024/04/01 06:03:22;;;;;;;3.60;2.70;;;;;;;17.36;59.41;99147.78;10449840;28;20124;-63
2024/04/01 06:08:23;;;;;;;5.32;2.88;;;;;;;17.42;58.88;99141.94;10449909;28;20298;-62
2024/04/01 06:13:23;;;;;;;6.07;2.50;;;;;;;17.53;59.48;99145.00;10449127;28;20045;-65
2024/04/01 06:18:24;;;;;;;7.10;2.83;;;;;;;17.66;59.42;99153.91;10452099;28;20044;-62
2024/04/01 06:23:24;;;;;;;17.75;3.30;;;;;;;17.80;60.93;99149.09;10439725;28;20066;-62
2024/04/01 06:28:24;;;;;;;10.37;3.00;;;;;;;17.70;60.37;99144.91;10457718;28;20024;-62
2024/04/01 06:33:25;;;;;;;10.77;3.00;;;;;;;17.77;60.55;99155.88;10456947;28;20361;-60
2024/04/01 06:38:25;;;;;;;14.38;3.55;;;;;;;17.68;60.47;99157.81;10457444;28;20329;-63
2024/04/01 06:43:25;;;;;;;14.83;3.87;;;;;;;17.64;60.56;99161.47;10439228;28;20024;-62
2024/04/01 06:48:27;;;;;;;9.07;3.10;;;;;;;17.62;60.09;99163.69;10457191;28;20390;-61
2024/04/01 06:53:27;;;;;;;23.83;3.75;;;;;;;17.66;60.58;99170.75;10456453;28;20287;-60
2024/04/01 06:58:28;;;;;;;14.90;2.90;;;;;;;17.61;60.80;99181.66;10421897;28;20021;-61
2024/04/01 07:03:28;;;;;;;7.25;3.08;;;;;;;17.50;60.57;99185.84;10455397;28;20279;-60
2024/04/01 07:08:28;;;;;;;19.17;4.93;;;;;;;17.40;60.70;99195.03;10456283;28;20515;-60
2024/04/01 07:13:29;;;;;;;10.80;4.13;;;;;;;17.35;60.16;99192.53;10436879;28;20484;-60
2024/04/01 07:18:30;;;;;;;9.82;3.17;;;;;;;17.33;60.06;99202.81;10455614;28;20325;-62
2024/04/01 07:23:30;;;;;;;7.13;3.38;;;;;;;17.30;60.76;99211.50;10436625;28;20063;-60
2024/04/01 07:28:31;;;;;;;7.97;2.50;;;;;;;17.27;61.37;99214.81;10435670;28;20109;-60
2024/04/01 07:33:31;;;;;;;8.80;2.97;;;;;;;17.24;59.70;99236.88;10453297;28;20314;-60
2024/04/01 07:38:31;;;;;;;6.32;2.30;;;;;;;17.21;60.33;99232.97;10453955;28;20052;-60
2024/04/01 07:43:32;;;;;;;6.23;2.83;;;;;;;17.27;60.34;99241.59;10453273;28;20475;-61
2024/04/01 07:48:32;;;;;;;5.50;2.43;;;;;;;17.29;59.51;99235.94;10453549;28;20291;-61
2024/04/01 07:53:33;;;;;;;8.07;2.80;;;;;;;17.30;59.69;99246.31;10452726;28;20272;-60
2024/04/01 07:58:33;;;;;;;6.40;2.30;;;;;;;17.29;59.43;99252.78;10435497;28;20268;-60
2024/04/01 08:03:34;;;;;;;4.70;2.57;;;;;;;17.27;60.21;99256.88;10453013;28;20672;-60
2024/04/01 08:08:35;;;;;;;7.43;2.60;;;;;;;17.28;60.57;99263.81;10434529;28;20632;-60
2024/04/01 08:13:35;;;;;;;7.77;2.10;;;;;;;17.25;60.35;99276.72;10451908;28;20045;-60
2024/04/01 08:18:36;;;;;;;9.05;2.30;;;;;;;17.30;59.55;99275.00;10452370;28;20279;-59
2024/04/01 08:23:36;;;;;;;4.13;2.30;;;;;;;17.32;58.99;99286.19;10451838;28;20033;-60
2024/04/01 08:28:36;;;;;;;6.67;2.00;;;;;;;17.32;59.72;99297.69;10451721;28;20021;-60
2024/04/01 08:33:37;;;;;;;3.73;1.60;;;;;;;17.31;59.46;99304.16;10451427;28;20310;-61
2024/04/01 08:38:37;;;;;;;4.83;1.93;;;;;;;17.31;58.80;99306.81;10451984;28;20278;-61
2024/04/01 08:43:42;;;;;;;4.53;1.77;;;;;;;17.32;59.56;99318.31;10451002;28;20275;-60
2024/04/01 08:48:44;;;;;;;5.78;1.75;;;;;;;17.31;60.19;99319.44;10433452;28;20298;-61
2024/04/01 08:53:59;;;;;;;5.20;2.58;;;;;;;17.29;59.60;99321.66;10433021;28;20067;-60
2024/04/01 08:59:00;;;;;;;3.90;1.73;;;;;;;17.26;60.05;99331.09;10450762;28;20024;-61
2024/04/01 09:04:00;;;;;;;2.90;1.70;;;;;;;17.27;59.63;99346.06;10449926;28;20032;-60
2024/04/01 09:09:02;;;;;;;3.70;1.42;;;;;;;17.29;58.70;99354.59;10416203;28;20488;-60
2024/04/01 09:14:03;;;;;;;6.00;2.10;;;;;;;17.32;59.80;99363.88;10449994;28;20073;-60
2024/04/01 09:19:07;;;;;;;3.03;1.87;;;;;;;17.34;58.75;99357.09;10450379;28;20025;-60
2024/04/01 09:24:08;;;;;;;4.95;1.63;;;;;;;17.36;58.62;99364.78;10449508;28;20283;-60
2024/04/01 09:29:08;;;;;;;4.30;1.90;;;;;;;17.37;58.91;99366.38;10449595;28;20029;-62
2024/04/01 09:34:08;;;;;;;4.47;1.53;;;;;;;17.35;59.38;99365.91;10449324;28;20029;-61
2024/04/01 09:39:10;;;;;;;3.07;1.70;;;;;;;17.33;59.31;99376.16;10414176;28;20287;-60
2024/04/01 09:44:10;;;;;;;4.05;1.90;;;;;;;17.33;59.66;99357.41;10449136;28;20292;-60
2024/04/01 09:49:11;;;;;;;2.97;1.65;;;;;;;17.30;58.74;99360.72;10449522;28;20111;-60
2024/04/01 09:54:12;;;;;;;3.05;1.77;;;;;;;17.31;59.33;99376.47;10430041;28;20086;-61
2024/04/01 09:59:31;;;;;;;8.88;1.80;;;;;;;17.34;58.16;99389.22;10431124;28;20029;-61
2024/04/01 10:04:46;;;;;;;2.67;1.13;;;;;;;17.35;58.67;99395.38;10449052;28;20055;-61
2024/04/01 10:10:08;;;;;;;1.85;1.00;;;;;;;17.36;58.89;99396.94;10448862;28;20036;-60
2024/04/01 10:15:30;;;;;;;3.20;1.20;;;;;;;17.34;58.99;99391.91;10448017;28;20045;-60
2024/04/01 10:21:00;;;;;;;2.63;1.33;;;;;;;17.33;58.60;99393.03;10448299;28;20119;-60
2024/04/01 10:26:57;;;;;;;2.63;1.55;;;;;;;17.30;58.25;99390.19;10430449;28;20033;-60
2024/04/01 10:32:37;;;;;;;2.75;1.35;;;;;;;17.25;58.90;99389.25;10280185;28;20046;-61
2024/04/01 10:37:55;;;;;;;3.15;1.50;;;;;;;17.24;58.52;99394.91;10278161;28;20510;-60
2024/04/01 10:42:58;;;;;;;2.42;1.30;;;;;;;17.25;58.77;99401.84;10279898;28;20050;-60
2024/04/01 10:48:20;;;;;;;2.92;1.77;;;;;;;17.21;58.88;99399.03;10279446;28;20608;-59
2024/04/01 10:53:35;;;;;;;2.00;1.27;;;;;;;17.23;59.27;99409.44;10279948;28;20398;-60
2024/04/01 10:59:13;;;;;;;2.20;1.25;;;;;;;17.21;58.33;99415.09;10279286;28;20038;-60
2024/04/01 11:04:16;;;;;;;4.43;1.48;;;;;;;17.24;58.60;99411.78;10449772;28;20029;-60
2024/04/01 11:09:34;;;;;;;2.10;1.45;;;;;;;17.28;58.36;99411.91;10454512;28;20043;-61
2024/04/01 11:14:36;;;;;;;2.70;1.58;;;;;;;17.25;59.45;99416.03;10448296;28;20076;-60
2024/04/01 11:20:03;;;;;;;1.83;1.17;;;;;;;17.23;59.73;99415.56;10436607;28;20029;-60
2024/04/01 11:25:24;;;;;;;2.15;1.45;;;;;;;17.24;59.60;99419.03;10454259;28;20110;-60
2024/04/01 11:30:34;;;;;;;2.13;1.30;;;;;;;17.27;58.39;99439.81;10436622;28;20029;-61
2024/04/01 11:35:48;;;;;;;2.42;1.92;;;;;;;17.30;58.59;99451.81;10428260;28;20040;-61
2024/04/01 11:40:50;;;;;;;2.78;1.40;;;;;;;17.29;59.04;99455.59;10436238;28;20033;-61
2024/04/01 11:45:51;;;;;;;3.03;1.52;;;;;;;17.24;57.84;99460.00;10435535;28;20488;-60
2024/04/01 11:50:53;;;;;;;2.25;1.20;;;;;;;17.24;59.08;99468.03;10435870;28;20033;-61
2024/04/01 11:55:56;;;;;;;3.05;1.40;;;;;;;17.30;58.60;99467.88;10452799;28;20021;-60
2024/04/01 12:00:58;;;;;;;2.33;1.33;;;;;;;17.30;58.97;99478.59;10435728;28;20060;-60
2024/04/01 12:06:04;;;;;;;2.97;1.42;;;;;;;17.29;58.76;99488.53;10434594;28;20051;-61
2024/04/01 12:11:05;;;;;;;2.22;1.25;;;;;;;17.28;58.84;99496.88;10435002;28;20061;-60
2024/04/01 12:16:08;;;;;;;1.73;1.17;;;;;;;17.27;58.19;99493.41;10451245;28;20049;-60
2024/04/01 12:21:08;;;;;;;2.08;1.05;;;;;;;17.24;58.06;99505.53;10435034;28;20526;-61
2024/04/01 12:26:10;;;;;;;2.17;1.02;;;;;;;17.22;58.34;99505.06;10433889;28;20095;-61
2024/04/01 12:31:18;;;;;;;2.17;1.30;;;;;;;17.20;59.22;99511.84;10451741;28;20421;-62
2024/04/01 12:36:18;;;;;;;2.35;1.20;;;;;;;17.15;59.21;99510.09;10438158;28;20024;-61
2024/04/01 12:41:20;;;;;;;1.48;0.80;;;;;;;17.11;59.01;99517.19;10433688;28;20024;-62
2024/04/01 12:46:26;;;;;;;3.50;1.30;;;;;;;17.09;60.06;99527.44;10450600;28;20143;-62
2024/04/01 12:51:28;;;;;;;2.78;0.98;;;;;;;17.08;59.45;99530.44;10450949;28;20037;-61
2024/04/01 12:56:40;;;;;;;3.45;1.40;;;;;;;17.14;58.89;99531.84;10450823;28;20074;-61
2024/04/01 13:01:51;;;;;;;2.92;1.35;;;;;;;17.12;58.56;99534.84;10451023;28;20060;-61
2024/04/01 13:06:58;;;;;;;2.30;1.02;;;;;;;17.16;59.67;99543.03;10450002;28;20508;-61
2024/04/01 13:12:22;;;;;;;1.73;1.05;;;;;;;17.18;59.68;99555.03;10450051;28;20420;-61
2024/04/01 13:17:56;;;;;;;1.25;0.90;;;;;;;17.18;59.01;99559.59;10432316;28;20021;-61
2024/04/01 13:23:12;;;;;;;2.50;1.10;;;;;;;17.19;59.74;99572.69;10399587;28;20045;-62
2024/04/01 13:28:20;;;;;;;3.72;1.40;;;;;;;17.18;58.76;99559.59;10431534;28;20078;-61
2024/04/01 13:33:52;;;;;;;5.30;1.42;;;;;;;17.15;58.76;99569.03;10431818;28;20131;-60
2024/04/01 13:39:13;;;;;;;2.97;1.13;;;;;;;17.13;58.49;99573.13;10445123;28;20500;-61
2024/04/01 13:44:19;;;;;;;2.45;1.10;;;;;;;17.10;59.92;99573.75;10449195;28;20036;-60
2024/04/01 13:49:29;;;;;;;1.73;1.10;;;;;;;17.06;58.90;99568.25;10431000;28;20055;-62
2024/04/01 13:54:36;;;;;;;2.38;1.02;;;;;;;17.05;58.99;99576.56;10449134;28;20071;-61
2024/04/01 13:59:44;;;;;;;1.42;0.88;;;;;;;17.03;59.96;99589.50;10430817;28;20041;-61
2024/04/01 14:05:15;;;;;;;2.42;1.35;;;;;;;17.02;58.47;99587.91;10431429;28;20427;-61
2024/04/01 14:10:44;;;;;;;1.73;0.93;;;;;;;16.99;59.94;99588.53;10448394;28;20124;-61
2024/04/01 14:16:22;;;;;;;1.83;0.98;;;;;;;16.98;59.10;99589.66;10430756;28;20570;-61
2024/04/01 14:21:22;;;;;;;2.63;0.93;;;;;;;16.96;58.59;99589.97;10448106;28;20029;-62
2024/04/01 14:26:23;;;;;;;1.52;0.88;;;;;;;16.95;60.06;99591.84;10448608;28;20029;-62
2024/04/01 14:31:24;;;;;;;2.03;1.20;;;;;;;16.94;58.41;99592.97;10448483;28;20059;-61
2024/04/01 14:36:25;;;;;;;1.50;0.93;;;;;;;16.94;59.06;99594.84;10448559;28;20025;-61
2024/04/01 14:41:30;;;;;;;1.23;0.93;;;;;;;16.93;59.72;99599.41;10453323;28;20032;-61
2024/04/01 14:46:31;;;;;;;1.95;1.00;;;;;;;16.95;59.45;99602.56;10456143;28;20021;-61
2024/04/01 14:51:32;;;;;;;1.95;0.90;;;;;;;16.98;58.85;99603.03;10455893;28;20112;-62
2024/04/01 14:56:32;;;;;;;1.75;1.08;;;;;;;16.97;59.06;99601.47;10438077;28;20020;-61
2024/04/01 15:01:33;;;;;;;2.63;1.20;;;;;;;16.94;59.52;99610.91;10437379;28;20538;-61
2024/04/01 15:06:37;;;;;;;2.95;1.02;;;;;;;16.91;59.42;99609.63;10455199;28;20330;-61
2024/04/01 15:11:43;;;;;;;1.08;0.75;;;;;;;16.92;60.00;99618.44;10437359;28;20075;-61
2024/04/01 15:16:44;;;;;;;1.48;1.00;;;;;;;16.91;59.88;99622.22;10454734;28;20515;-61
2024/04/01 15:21:46;;;;;;;1.92;0.90;;;;;;;16.91;58.75;99623.00;10454274;28;20025;-61
2024/04/01 15:26:47;;;;;;;1.75;1.10;;;;;;;16.89;59.57;99614.50;10436718;28;20085;-61
2024/04/01 15:31:47;;;;;;;2.58;1.25;;;;;;;16.90;60.01;99616.06;10436589;28;20025;-61
2024/04/01 15:36:47;;;;;;;2.23;1.17;;;;;;;16.90;58.71;99620.66;10436127;28;20017;-61
2024/04/01 15:41:48;;;;;;;2.13;0.95;;;;;;;16.93;58.16;99626.19;10453733;28;20321;-61
2024/04/01 15:46:50;;;;;;;1.10;0.77;;;;;;;17.00;59.48;99632.97;10453528;28;20029;-61
2024/04/01 15:51:52;;;;;;;2.15;0.98;;;;;;;17.01;59.16;99631.88;10434305;28;20025;-61
2024/04/01 15:56:55;;;;;;;1.20;1.10;;;;;;;17.00;59.44;99628.41;10453368;28;20466;-60
2024/04/01 16:01:55;;;;;;;1.75;1.00;;;;;;;17.00;58.78;99628.41;10453304;28;20037;-62
2024/04/01 16:06:56;;;;;;;1.77;1.00;;;;;;;16.99;57.91;99631.38;10453446;28;20051;-61
2024/04/01 16:11:56;;;;;;;1.85;0.98;;;;;;;17.07;58.57;99636.00;10452084;28;20029;-61
2024/04/01 16:16:57;;;;;;;2.20;1.13;;;;;;;17.09;58.89;99642.59;10434775;28;20013;-61
2024/04/01 16:22:11;;;;;;;4.50;1.40;;;;;;;17.11;57.92;99639.63;10452221;28;20636;-61
2024/04/01 16:27:27;;;;;;;1.13;0.82;;;;;;;17.18;57.63;99648.00;10434996;28;20029;-60
2024/04/01 16:32:30;;;;;;;1.88;1.00;;;;;;;17.21;57.32;99653.50;10433649;28;20028;-62
2024/04/01 16:37:30;;;;;;;1.58;1.08;;;;;;;17.21;57.26;99655.41;10451612;28;20048;-61
2024/04/01 16:42:33;;;;;;;2.47;1.63;;;;;;;17.24;57.11;99652.09;10451471;28;20043;-61
2024/04/01 16:47:34;;;;;;;1.42;0.82;;;;;;;17.24;57.19;99652.09;10451816;28;20417;-62
2024/04/01 16:52:34;;;;;;;1.35;0.90;;;;;;;17.23;58.37;99645.16;10432710;28;20025;-62
2024/04/01 16:57:35;;;;;;;2.03;0.68;;;;;;;17.22;58.13;99654.28;10451011;28;20025;-62
2024/04/01 17:02:37;;;;;;;1.65;1.13;;;;;;;17.19;56.85;99653.03;10450253;28;20059;-61
2024/04/01 17:07:38;;;;;;;1.33;0.80;;;;;;;17.23;58.00;99658.56;10450370;28;20651;-61
2024/04/01 17:12:39;;;;;;;1.58;1.13;;;;;;;17.25;57.70;99653.66;10449714;28;20053;-61
2024/04/01 17:17:42;;;;;;;1.67;0.80;;;;;;;17.24;58.38;99650.19;10450825;28;20017;-61
2024/04/01 17:22:43;;;;;;;1.30;0.73;;;;;;;17.21;57.09;99648.16;10449719;28;20025;-61
2024/04/01 17:27:44;;;;;;;2.60;0.93;;;;;;;17.21;57.74;99664.22;10449911;28;20051;-62
2024/04/01 17:32:45;;;;;;;1.88;1.00;;;;;;;17.18;56.84;99656.81;10449626;28;20017;-62
2024/04/01 17:37:45;;;;;;;1.55;1.00;;;;;;;17.24;56.84;99660.91;10449724;28;20021;-61
2024/04/01 17:42:46;;;;;;;1.88;0.88;;;;;;;17.24;57.28;99665.47;10431506;28;20055;-62
2024/04/01 17:47:47;;;;;;;1.27;0.90;;;;;;;17.23;56.52;99667.38;10431388;28;20500;-62
2024/04/01 17:52:49;;;;;;;2.25;1.10;;;;;;;17.21;58.11;99677.63;10449333;28;20570;-61
2024/04/01 17:57:50;;;;;;;1.50;1.05;;;;;;;17.20;57.22;99673.38;10449068;28;20648;-61
2024/04/01 18:02:50;;;;;;;2.13;1.10;;;;;;;17.21;57.43;99677.63;10448835;28;20127;-61
2024/04/01 18:07:51;;;;;;;1.58;1.10;;;;;;;17.23;58.15;99693.38;10431015;28;20028;-62
2024/04/01 18:12:52;;;;;;;1.33;1.02;;;;;;;17.23;57.15;99694.16;10448051;28;20057;-61
2024/04/01 18:17:52;;;;;;;2.90;1.20;;;;;;;17.29;57.31;99704.75;10439728;28;20052;-61
2024/04/01 18:22:52;;;;;;;2.67;1.13;;;;;;;17.29;57.40;99710.13;10455969;28;20435;-61
2024/04/01 18:27:53;;;;;;;2.55;1.13;;;;;;;17.26;57.00;99719.53;10457801;28;20284;-61
2024/04/01 18:32:53;;;;;;;2.08;1.30;;;;;;;17.23;56.98;99728.19;10457069;28;20493;-62
2024/04/01 18:37:54;;;;;;;5.63;2.23;;;;;;;17.37;56.87;99733.44;10457344;28;20024;-59
2024/04/01 18:42:54;;;;;;;5.93;2.10;;;;;;;17.44;56.82;99747.97;10457136;28;20856;-61
2024/04/01 18:47:55;;;;;;;4.72;2.35;;;;;;;17.36;56.96;99753.31;10456777;28;20053;-60
2024/04/01 18:52:56;;;;;;;6.93;1.98;;;;;;;17.35;57.38;99757.88;10456678;28;20082;-61
2024/04/01 18:57:57;;;;;;;3.22;1.70;;;;;;;17.33;56.96;99765.44;10456900;28;20037;-60
2024/04/01 19:02:57;;;;;;;2.88;1.70;;;;;;;17.29;58.33;99771.72;10456332;28;20401;-60
2024/04/01 19:07:58;;;;;;;3.92;1.67;;;;;;;17.34;57.54;99784.97;10456446;28;20032;-61
2024/04/01 19:12:58;;;;;;;4.10;1.70;;;;;;;17.31;57.69;99783.72;10455535;28;20043;-60
2024/04/01 19:17:58;;;;;;;5.80;1.75;;;;;;;17.32;57.35;99787.97;10455018;28;20278;-60
2024/04/01 19:22:59;;;;;;;4.23;1.60;;;;;;;17.31;57.15;99775.69;10454728;28;20036;-61
2024/04/01 19:27:59;;;;;;;4.37;1.60;;;;;;;17.32;57.94;99793.34;10455231;28;20309;-62
2024/04/01 19:33:01;;;;;;;4.07;1.60;;;;;;;17.33;57.15;99794.13;10454607;28;20290;-62
2024/04/01 19:38:03;;;;;;;5.40;2.00;;;;;;;17.30;57.84;99800.91;10454957;28;20287;-62
2024/04/01 19:43:03;;;;;;;5.20;2.05;;;;;;;17.28;57.67;99799.59;10437486;28;20032;-63
2024/04/01 19:48:04;;;;;;;3.70;1.67;;;;;;;17.24;57.24;99794.88;10437120;28;20025;-62
2024/04/01 19:53:05;;;;;;;3.15;1.40;;;;;;;17.32;57.43;99806.72;10454488;28;20025;-62
2024/04/01 19:58:07;;;;;;;3.45;1.55;;;;;;;17.34;57.19;99804.53;10454423;28;20100;-62
2024/04/01 20:03:07;;;;;;;3.15;1.27;;;;;;;17.34;56.50;99812.56;10436351;28;20036;-62
2024/04/01 20:08:22;;;;;;;4.07;1.60;;;;;;;17.43;56.80;99816.06;10453940;28;20036;-62
2024/04/01 20:13:23;;;;;;;3.15;1.58;;;;;;;17.41;56.83;99809.44;10453560;28;20077;-62
2024/04/01 20:18:28;;;;;;;3.63;1.60;;;;;;;17.39;57.01;99812.41;10435635;28;20099;-63
2024/04/01 20:23:28;;;;;;;5.15;1.42;;;;;;;17.35;56.79;99813.34;10435239;28;20021;-62
2024/04/01 20:28:29;;;;;;;3.28;1.70;;;;;;;17.34;56.60;99812.56;10453412;28;20119;-62
2024/04/01 20:33:29;;;;;;;2.65;1.27;;;;;;;17.39;56.93;99817.78;10435209;28;20035;-62
2024/04/01 20:38:30;;;;;;;2.10;1.40;;;;;;;17.36;56.61;99815.72;10434466;28;20025;-62
2024/04/01 20:43:31;;;;;;;2.80;1.42;;;;;;;17.36;57.01;99814.94;10452405;28;20038;-62
2024/04/01 20:48:31;;;;;;;4.25;1.73;;;;;;;17.34;57.18;99830.53;10452483;28;20464;-63
2024/04/01 20:53:33;;;;;;;2.42;1.20;;;;;;;17.37;56.70;99832.59;10434200;28;20099;-63
2024/04/01 20:58:33;;;;;;;1.92;1.02;;;;;;;17.37;57.35;99817.28;10434243;28;20090;-62
2024/04/01 21:03:35;;;;;;;2.42;1.20;;;;;;;17.41;57.13;99820.97;10433907;28;20071;-62
2024/04/01 21:08:36;;;;;;;3.17;1.35;;;;;;;17.46;56.94;99826.16;10451545;28;20041;-62
2024/04/01 21:13:36;;;;;;;2.65;1.23;;;;;;;17.39;56.50;99819.66;10433204;28;20048;-62
2024/04/01 21:18:40;;;;;;;3.17;1.38;;;;;;;17.36;56.34;99831.81;10451531;28;20097;-62
2024/04/01 21:23:40;;;;;;;2.17;1.40;;;;;;;17.34;57.40;99836.69;10433648;28;20029;-62
2024/04/01 21:28:40;;;;;;;2.72;1.15;;;;;;;17.31;56.60;99837.31;10450895;28;20377;-62
2024/04/01 21:33:41;;;;;;;3.53;1.60;;;;;;;17.41;56.22;99841.59;10450602;28;20461;-62
2024/04/01 21:38:41;;;;;;;2.45;1.27;;;;;;;17.46;56.50;99849.50;10433117;28;20263;-62
2024/04/01 21:43:42;;;;;;;1.60;1.10;;;;;;;17.44;56.23;99854.38;10450480;28;20029;-62
2024/04/01 21:48:42;;;;;;;2.50;1.30;;;;;;;17.46;56.52;99858.34;10450682;28;20283;-62
2024/04/01 21:53:42;;;;;;;1.77;0.90;;;;;;;17.43;56.71;99858.97;10450577;28;20107;-62
2024/04/01 21:58:42;;;;;;;1.23;0.85;;;;;;;17.40;57.18;99856.88;10450226;28;20303;-62
2024/04/01 22:03:43;;;;;;;1.47;1.03;;;;;;;17.44;55.50;99863.22;10449984;28;20033;-62
2024/04/01 22:08:43;;;;;;;1.55;0.98;;;;;;;17.40;56.37;99869.47;10432123;28;20291;-62
2024/04/01 22:13:44;;;;;;;1.50;1.07;;;;;;;17.38;56.96;99875.16;10431381;28;20565;-62
2024/04/01 22:18:44;;;;;;;2.17;1.00;;;;;;;17.43;56.05;99884.97;10450168;28;20275;-62
2024/04/01 22:23:45;;;;;;;1.90;1.17;;;;;;;17.42;56.29;99886.84;10449599;28;20456;-62
2024/04/01 22:28:45;;;;;;;1.37;1.20;;;;;;;17.40;55.64;99897.06;10449962;28;20025;-62
2024/04/01 22:33:45;;;;;;;1.45;1.00;;;;;;;17.39;56.16;99898.16;10449393;28;20643;-62
2024/04/01 22:38:46;;;;;;;3.42;1.13;;;;;;;17.45;55.79;99904.19;10449623;28;20629;-62
2024/04/01 22:43:46;;;;;;;1.85;1.08;;;;;;;17.45;55.21;99902.31;10449178;28;20364;-63
2024/04/01 22:48:46;;;;;;;2.45;1.20;;;;;;;17.41;55.29;99909.41;10431320;28;20033;-62
2024/04/01 22:53:47;;;;;;;2.33;1.43;;;;;;;17.38;56.01;99904.63;10449112;28;20460;-63
2024/04/01 22:58:47;;;;;;;1.98;1.20;;;;;;;17.43;56.28;99917.91;10449220;28;20291;-62
2024/04/01 23:03:48;;;;;;;1.38;0.70;;;;;;;17.43;56.68;99914.44;10438266;28;20036;-62
2024/04/01 23:08:49;;;;;;;2.90;1.13;;;;;;;17.43;56.28;99917.13;10456385;28;20025;-62
2024/04/01 23:13:50;;;;;;;1.67;1.10;;;;;;;17.41;56.19;99927.38;10456172;28;20295;-62
2024/04/01 23:18:51;;;;;;;2.25;1.25;;;;;;;17.40;55.27;99928.44;10438067;28;20483;-62
2024/04/01 23:23:52;;;;;;;2.05;1.30;;;;;;;17.46;55.49;99935.25;10456022;28;20052;-62
2024/04/01 23:28:53;;;;;;;1.73;1.30;;;;;;;17.46;55.61;99936.06;10437421;28;20025;-62